createdAt,value
2019-05-13T00:00:59.939Z,44.93
2019-05-13T00:03:33.482Z,45.40
2019-05-13T00:06:05.647Z,45.65
2019-05-13T00:08:37.360Z,44.88
2019-05-13T00:11:08.891Z,43.80
2019-05-13T00:13:40.166Z,42.03
2019-05-13T00:16:13.935Z,43.35
2019-05-13T00:18:45.426Z,41.18
2019-05-13T00:21:17.022Z,43.45
2019-05-13T00:23:49.149Z,43.15
2019-05-13T00:26:24.476Z,43.83
2019-05-13T00:29:08.680Z,45.15
2019-05-13T00:31:43.841Z,42.23
2019-05-13T00:34:15.181Z,44.27
2019-05-13T00:36:46.649Z,43.30
2019-05-13T00:39:18.026Z,47.20
2019-05-13T00:41:53.090Z,44.98
2019-05-13T00:44:25.407Z,43.55
2019-05-13T00:46:57.899Z,43.30
2019-05-13T00:49:37.423Z,43.33
2019-05-13T00:52:08.573Z,40.92
2019-05-13T00:54:40.925Z,41.48
2019-05-13T00:57:13.361Z,44.90
2019-05-13T00:59:51.426Z,43.08
2019-05-13T01:02:24.316Z,42.23
2019-05-13T01:04:55.944Z,42.15
2019-05-13T01:07:28.950Z,42.55
2019-05-13T01:10:00.610Z,42.53
2019-05-13T01:12:34.296Z,41.35
2019-05-13T01:15:06.048Z,39.78
2019-05-13T01:17:37.271Z,39.50
2019-05-13T01:20:08.513Z,38.00
2019-05-13T01:22:40.656Z,37.83
2019-05-13T01:25:14.452Z,37.63
2019-05-13T01:27:46.619Z,37.03
2019-05-13T01:30:19.655Z,34.35
2019-05-13T01:32:50.871Z,36.20
2019-05-13T01:35:23.568Z,34.98
2019-05-13T01:37:55.731Z,35.63
2019-05-13T01:40:26.987Z,38.48
2019-05-13T01:42:58.231Z,34.95
2019-05-13T01:45:29.797Z,35.08
2019-05-13T01:48:01.120Z,35.23
2019-05-13T01:50:33.757Z,34.45
2019-05-13T01:53:05.391Z,37.58
2019-05-13T01:55:36.815Z,37.98
2019-05-13T01:58:08.047Z,36.48
2019-05-13T02:00:39.269Z,36.20
2019-05-13T02:03:10.609Z,34.10
2019-05-13T02:05:43.929Z,33.98
2019-05-13T02:08:14.792Z,33.67
2019-05-13T02:10:54.625Z,33.73
2019-05-13T02:13:26.322Z,33.33
2019-05-13T02:15:57.763Z,35.45
2019-05-13T02:18:28.963Z,35.52
2019-05-13T02:21:00.239Z,36.70
2019-05-13T02:23:33.856Z,35.55
2019-05-13T02:26:04.631Z,35.38
2019-05-13T02:28:37.471Z,35.10
2019-05-13T02:31:12.409Z,34.67
2019-05-13T02:33:42.376Z,36.03
2019-05-13T02:36:14.100Z,35.90
2019-05-13T02:38:45.441Z,35.92
2019-05-13T02:41:16.640Z,36.03
2019-05-13T02:43:47.984Z,37.53
2019-05-13T02:46:22.376Z,38.35
2019-05-13T02:48:52.906Z,37.25
2019-05-13T02:51:24.516Z,38.20
2019-05-13T02:53:55.714Z,36.35
2019-05-13T02:56:27.064Z,34.53
2019-05-13T02:58:58.247Z,37.65
2019-05-13T03:01:32.873Z,32.33
2019-05-13T03:04:03.327Z,29.85
2019-05-13T03:06:34.887Z,29.20
2019-05-13T03:09:07.454Z,27.50
2019-05-13T03:11:41.543Z,26.85
2019-05-13T03:14:12.829Z,25.62
2019-05-13T03:16:45.980Z,27.42
2019-05-13T03:19:17.291Z,25.95
2019-05-13T03:21:51.964Z,27.45
2019-05-13T03:24:22.726Z,25.80
2019-05-13T03:26:54.746Z,25.85
2019-05-13T03:29:26.060Z,25.27
2019-05-13T03:31:57.305Z,25.30
2019-05-13T03:34:28.546Z,26.00
2019-05-13T03:37:06.707Z,26.12
2019-05-13T03:39:34.447Z,26.23
2019-05-13T03:42:05.874Z,24.12
2019-05-13T03:44:37.115Z,25.85
2019-05-13T03:47:08.504Z,25.23
2019-05-13T03:49:42.225Z,24.95
2019-05-13T03:52:13.567Z,26.42
2019-05-13T03:54:46.680Z,25.45
2019-05-13T03:57:18.197Z,25.52
2019-05-13T03:59:52.401Z,26.57
2019-05-13T04:02:22.895Z,24.55
2019-05-13T04:04:59.011Z,26.07
2019-05-13T04:07:32.424Z,24.45
2019-05-13T04:10:03.363Z,23.87
2019-05-13T04:12:34.951Z,24.00
2019-05-13T04:15:07.316Z,23.75
2019-05-13T04:17:38.540Z,23.52
2019-05-13T04:20:12.595Z,24.40
2019-05-13T04:22:42.946Z,26.30
2019-05-13T04:25:14.296Z,23.35
2019-05-13T04:27:45.684Z,23.73
2019-05-13T04:30:34.425Z,23.40
2019-05-13T04:33:13.937Z,23.10
2019-05-13T04:35:45.960Z,21.95
2019-05-13T04:38:17.454Z,21.10
2019-05-13T04:40:52.870Z,23.60
2019-05-13T04:43:30.095Z,22.00
2019-05-13T04:45:58.808Z,20.40
2019-05-13T04:48:33.613Z,23.22
2019-05-13T04:51:03.383Z,22.48
2019-05-13T04:53:37.209Z,20.17
2019-05-13T04:56:08.606Z,21.12
2019-05-13T04:58:42.856Z,21.55
2019-05-13T05:01:24.958Z,21.30
2019-05-13T05:04:11.411Z,20.62
2019-05-13T05:06:52.670Z,20.08
2019-05-13T05:10:15.503Z,20.15
2019-05-13T05:12:44.893Z,18.98
2019-05-13T05:15:41.560Z,18.05
2019-05-13T05:18:37.388Z,18.90
2019-05-13T05:21:26.786Z,21.37
2019-05-13T05:24:13.079Z,20.15
2019-05-13T05:26:56.672Z,21.37
2019-05-13T05:30:03.086Z,19.70
2019-05-13T05:32:43.466Z,18.35
2019-05-13T05:35:33.120Z,16.67
2019-05-13T05:38:25.236Z,15.48
2019-05-13T05:40:54.325Z,14.45
2019-05-13T05:43:25.957Z,14.38
2019-05-13T05:45:57.967Z,13.78
2019-05-13T05:48:31.373Z,13.68
2019-05-13T05:51:02.382Z,14.00
2019-05-13T05:53:33.687Z,13.60
2019-05-13T05:56:05.156Z,13.30
2019-05-13T05:58:38.162Z,13.48
2019-05-13T06:01:11.841Z,13.98
2019-05-13T06:03:43.382Z,13.98
2019-05-13T06:06:15.074Z,13.20
2019-05-13T06:08:46.352Z,13.22
2019-05-13T06:11:17.696Z,13.83
2019-05-13T06:13:52.174Z,13.58
2019-05-13T06:16:23.457Z,13.68
2019-05-13T06:18:55.189Z,14.18
2019-05-13T06:21:26.341Z,13.48
2019-05-13T06:23:57.676Z,13.40
2019-05-13T06:26:31.285Z,14.43
2019-05-13T06:29:02.720Z,14.73
2019-05-13T06:31:34.260Z,14.03
2019-05-13T06:34:05.734Z,14.13
2019-05-13T06:36:36.976Z,14.38
2019-05-13T06:39:12.378Z,13.98
2019-05-13T06:41:43.014Z,14.87
2019-05-13T06:44:14.188Z,14.73
2019-05-13T06:46:45.972Z,17.23
2019-05-13T06:49:17.383Z,14.80
2019-05-13T06:51:48.628Z,14.10
2019-05-13T06:54:21.932Z,15.05
2019-05-13T06:56:53.362Z,15.08
2019-05-13T06:59:24.566Z,14.68
2019-05-13T07:01:55.866Z,15.93
2019-05-13T07:04:27.359Z,14.55
2019-05-13T07:07:09.895Z,14.47
2019-05-13T07:09:32.358Z,14.98
2019-05-13T07:12:07.522Z,15.58
2019-05-13T07:14:41.153Z,14.68
2019-05-13T07:17:12.959Z,14.47
2019-05-13T07:19:45.794Z,15.15
2019-05-13T07:22:16.980Z,15.45
2019-05-13T07:24:51.786Z,15.03
2019-05-13T07:27:23.091Z,14.25
2019-05-13T07:29:55.963Z,13.85
2019-05-13T07:32:27.222Z,13.85
2019-05-13T07:34:58.530Z,14.47
2019-05-13T07:37:31.792Z,14.73
2019-05-13T07:40:06.947Z,14.23
2019-05-13T07:42:38.299Z,13.72
2019-05-13T07:45:12.111Z,14.98
2019-05-13T07:47:45.813Z,14.78
2019-05-13T07:50:17.239Z,21.12
2019-05-13T07:52:51.410Z,14.13
2019-05-13T07:55:22.357Z,13.10
2019-05-13T07:57:53.862Z,12.47
2019-05-13T08:00:25.778Z,12.37
2019-05-13T08:02:57.175Z,12.23
2019-05-13T08:05:28.626Z,11.83
2019-05-13T08:08:02.201Z,12.00
2019-05-13T08:10:33.726Z,10.80
2019-05-13T08:13:05.002Z,13.18
2019-05-13T08:15:36.324Z,11.65
2019-05-13T08:18:07.673Z,10.82
2019-05-13T08:20:41.749Z,11.25
2019-05-13T08:23:12.257Z,10.88
2019-05-13T08:25:44.475Z,10.48
2019-05-13T08:28:15.760Z,10.25
2019-05-13T08:30:46.958Z,9.93
2019-05-13T08:33:18.281Z,10.28
2019-05-13T08:35:53.999Z,10.43
2019-05-13T08:38:23.110Z,9.75
2019-05-13T08:40:54.739Z,9.00
2019-05-13T08:43:26.932Z,9.83
2019-05-13T08:45:58.419Z,9.63
2019-05-13T08:48:32.104Z,9.48
2019-05-13T08:51:03.405Z,9.45
2019-05-13T08:53:36.186Z,9.70
2019-05-13T08:56:07.516Z,10.18
2019-05-13T08:58:41.252Z,10.13
2019-05-13T09:01:12.794Z,12.40
2019-05-13T09:03:44.430Z,14.18
2019-05-13T09:06:15.909Z,15.23
2019-05-13T09:08:47.271Z,13.98
2019-05-13T09:11:18.563Z,12.93
2019-05-13T09:13:51.575Z,9.25
2019-05-13T09:16:22.610Z,10.55
2019-05-13T09:18:53.766Z,11.08
2019-05-13T09:21:26.806Z,10.48
2019-05-13T09:23:58.055Z,11.55
2019-05-13T09:26:31.626Z,9.18
2019-05-13T09:29:02.489Z,9.93
2019-05-13T09:31:34.845Z,11.20
2019-05-13T09:34:07.106Z,9.85
2019-05-13T09:36:38.385Z,10.15
2019-05-13T09:39:13.058Z,9.23
2019-05-13T09:41:44.831Z,9.23
2019-05-13T09:44:16.388Z,8.48
2019-05-13T09:46:48.106Z,9.63
2019-05-13T09:49:23.727Z,8.95
2019-05-13T09:51:54.709Z,10.48
2019-05-13T09:54:25.973Z,9.98
2019-05-13T09:56:57.403Z,10.53
2019-05-13T09:59:28.630Z,10.32
2019-05-13T10:02:02.609Z,9.38
2019-05-13T10:04:36.363Z,9.78
2019-05-13T10:07:07.670Z,9.00
2019-05-13T10:09:38.987Z,8.78
2019-05-13T10:12:12.193Z,9.70
2019-05-13T10:14:43.313Z,10.13
2019-05-13T10:17:15.428Z,9.30
2019-05-13T10:19:55.873Z,9.50
2019-05-13T10:22:28.614Z,9.18
2019-05-13T10:25:02.707Z,9.33
2019-05-13T10:27:37.069Z,10.10
2019-05-13T10:30:11.304Z,8.35
2019-05-13T10:32:42.495Z,8.68
2019-05-13T10:35:14.159Z,8.20
2019-05-13T10:37:47.082Z,8.45
2019-05-13T10:40:18.714Z,8.13
2019-05-13T10:42:52.663Z,8.58
2019-05-13T10:45:24.079Z,8.30
2019-05-13T10:47:55.441Z,8.30
2019-05-13T10:50:27.886Z,8.10
2019-05-13T10:52:59.340Z,8.28
2019-05-13T10:55:32.479Z,8.00
2019-05-13T10:58:03.511Z,7.75
2019-05-13T11:00:43.924Z,7.90
2019-05-13T11:03:16.141Z,8.38
2019-05-13T11:05:48.507Z,8.53
2019-05-13T11:08:22.147Z,8.13
2019-05-13T11:10:54.951Z,8.33
2019-05-13T11:13:46.833Z,8.65
2019-05-13T11:16:02.343Z,9.58
2019-05-13T11:18:33.844Z,10.30
2019-05-13T11:21:05.027Z,10.20
2019-05-13T11:23:37.255Z,10.48
2019-05-13T11:26:08.593Z,8.25
2019-05-13T11:28:42.692Z,9.45
2019-05-13T11:31:12.930Z,11.35
2019-05-13T11:33:44.825Z,9.45
2019-05-13T11:36:19.061Z,9.58
2019-05-13T11:38:49.775Z,9.45
2019-05-13T11:41:23.064Z,9.30
2019-05-13T11:44:12.190Z,8.65
2019-05-13T11:46:27.946Z,8.40
2019-05-13T11:49:02.243Z,8.93
2019-05-13T11:51:32.435Z,10.13
2019-05-13T11:54:05.093Z,8.00
2019-05-13T11:56:36.617Z,8.45
2019-05-13T11:59:07.862Z,9.28
2019-05-13T12:01:42.392Z,9.03
2019-05-13T12:04:13.545Z,7.92
2019-05-13T12:06:49.027Z,8.30
2019-05-13T12:09:21.982Z,8.95
2019-05-13T12:11:52.970Z,7.58
2019-05-13T12:14:43.670Z,7.37
2019-05-13T12:16:57.305Z,7.50
2019-05-13T12:19:28.863Z,6.87
2019-05-13T12:22:02.726Z,7.97
2019-05-13T12:24:34.253Z,7.08
2019-05-13T12:27:05.563Z,4.75
2019-05-13T12:29:36.995Z,3.55
2019-05-13T12:32:08.467Z,3.65
2019-05-13T12:34:45.642Z,4.50
2019-05-13T12:37:13.005Z,4.45
2019-05-13T12:39:44.392Z,4.05
2019-05-13T12:42:22.447Z,4.20
2019-05-13T12:45:08.298Z,4.80
2019-05-13T12:47:25.303Z,4.40
2019-05-13T12:49:56.670Z,4.87
2019-05-13T12:52:28.046Z,3.90
2019-05-13T12:55:02.958Z,4.97
2019-05-13T12:57:33.906Z,5.30
2019-05-13T13:00:07.641Z,5.80
2019-05-13T13:02:39.280Z,5.92
2019-05-13T13:05:19.560Z,6.22
2019-05-13T13:08:12.067Z,5.83
2019-05-13T13:10:18.982Z,6.42
2019-05-13T13:12:54.589Z,11.97
2019-05-13T13:15:37.097Z,12.25
2019-05-13T13:18:02.471Z,7.30
2019-05-13T13:20:33.522Z,7.53
2019-05-13T13:23:04.858Z,6.87
2019-05-13T13:25:36.130Z,7.08
2019-05-13T13:28:14.329Z,6.90
2019-05-13T13:30:43.909Z,6.80
2019-05-13T13:33:15.334Z,6.55
2019-05-13T13:35:55.927Z,6.83
2019-05-13T13:38:25.206Z,5.90
2019-05-13T13:40:57.370Z,6.03
2019-05-13T13:43:29.111Z,5.97
2019-05-13T13:46:08.534Z,5.70
2019-05-13T13:48:34.582Z,6.22
2019-05-13T13:51:06.123Z,5.40
2019-05-13T13:53:37.610Z,5.08
2019-05-13T13:56:08.982Z,7.15
2019-05-13T13:58:43.963Z,5.45
2019-05-13T14:01:18.533Z,6.30
2019-05-13T14:03:47.041Z,5.53
2019-05-13T14:07:20.408Z,6.20
2019-05-13T14:08:52.086Z,7.45
2019-05-13T14:11:23.637Z,8.75
2019-05-13T14:13:54.922Z,9.35
2019-05-13T14:16:32.513Z,8.53
2019-05-13T14:18:59.965Z,6.45
2019-05-13T14:21:33.009Z,6.35
2019-05-13T14:24:05.970Z,5.40
2019-05-13T14:26:43.438Z,5.17
2019-05-13T14:29:40.693Z,5.37
2019-05-13T14:32:05.132Z,5.78
2019-05-13T14:34:41.859Z,6.08
2019-05-13T14:37:13.391Z,6.90
2019-05-13T14:39:45.891Z,6.15
2019-05-13T14:42:17.366Z,6.25
2019-05-13T14:44:48.841Z,6.90
2019-05-13T14:47:21.791Z,6.50
2019-05-13T14:49:53.555Z,6.85
2019-05-13T14:52:28.066Z,6.40
2019-05-13T14:55:02.183Z,7.65
2019-05-13T14:57:33.647Z,7.50
2019-05-13T15:00:08.082Z,8.25
2019-05-13T15:02:41.936Z,7.60
2019-05-13T15:05:12.796Z,7.67
2019-05-13T15:07:45.580Z,7.00
2019-05-13T15:10:17.935Z,7.53
2019-05-13T15:12:52.354Z,7.17
2019-05-13T15:15:24.251Z,7.72
2019-05-13T15:17:56.162Z,7.65
2019-05-13T15:20:27.459Z,7.80
2019-05-13T15:22:58.945Z,8.18
2019-05-13T15:25:31.364Z,8.10
2019-05-13T15:28:03.249Z,7.95
2019-05-13T15:30:37.332Z,8.60
2019-05-13T15:33:08.729Z,8.45
2019-05-13T15:35:42.010Z,7.95
2019-05-13T15:38:14.385Z,8.05
2019-05-13T15:40:45.942Z,8.00
2019-05-13T15:43:18.556Z,8.65
2019-05-13T15:45:51.319Z,9.48
2019-05-13T15:48:33.842Z,9.33
2019-05-13T15:51:05.455Z,9.60
2019-05-13T15:53:36.935Z,9.23
2019-05-13T15:56:22.286Z,10.00
2019-05-13T15:58:49.300Z,10.38
2019-05-13T16:01:23.005Z,10.88
2019-05-13T16:03:53.872Z,16.87
2019-05-13T16:06:25.547Z,11.97
2019-05-13T16:08:57.664Z,11.35
2019-05-13T16:11:32.258Z,12.28
2019-05-13T16:14:02.758Z,11.00
2019-05-13T16:16:37.022Z,10.82
2019-05-13T16:19:08.572Z,9.83
2019-05-13T16:21:41.567Z,9.13
2019-05-13T16:24:14.235Z,10.23
2019-05-13T16:26:46.992Z,9.45
2019-05-13T16:29:18.546Z,10.70
2019-05-13T16:31:51.941Z,8.95
2019-05-13T16:34:25.862Z,9.30
2019-05-13T16:36:58.598Z,10.03
2019-05-13T16:39:32.059Z,8.60
2019-05-13T16:42:05.170Z,8.58
2019-05-13T16:44:37.575Z,8.13
2019-05-13T16:47:09.064Z,7.75
2019-05-13T16:49:41.208Z,7.03
2019-05-13T16:52:12.782Z,7.47
2019-05-13T16:54:44.227Z,8.58
2019-05-13T16:57:16.945Z,7.35
2019-05-13T16:59:51.537Z,7.95
2019-05-13T17:02:23.642Z,6.30
2019-05-13T17:04:56.117Z,6.97
2019-05-13T17:07:27.488Z,7.00
2019-05-13T17:10:03.447Z,6.90
2019-05-13T17:12:38.994Z,7.40
2019-05-13T17:15:11.578Z,7.45
2019-05-13T17:17:44.155Z,6.17
2019-05-13T17:20:18.012Z,6.47
2019-05-13T17:22:51.321Z,7.60
2019-05-13T17:25:23.424Z,8.28
2019-05-13T17:27:55.005Z,6.58
2019-05-13T17:30:28.373Z,12.70
2019-05-13T17:33:02.291Z,6.42
2019-05-13T17:35:33.641Z,6.58
2019-05-13T17:38:06.925Z,7.03
2019-05-13T17:40:38.403Z,7.70
2019-05-13T17:43:11.911Z,8.85
2019-05-13T17:45:45.589Z,7.37
2019-05-13T17:48:28.487Z,7.50
2019-05-13T17:50:52.088Z,8.15
2019-05-13T17:53:24.135Z,9.80
2019-05-13T17:56:04.800Z,9.98
2019-05-13T17:58:37.756Z,9.60
2019-05-13T18:01:12.093Z,10.72
2019-05-13T18:03:45.014Z,10.10
2019-05-13T18:06:17.379Z,10.18
2019-05-13T18:08:49.051Z,9.08
2019-05-13T18:11:22.032Z,9.90
2019-05-13T18:13:53.876Z,10.53
2019-05-13T18:16:27.814Z,11.88
2019-05-13T18:19:00.365Z,10.68
2019-05-13T18:21:34.461Z,12.53
2019-05-13T18:24:06.278Z,11.95
2019-05-13T18:26:37.821Z,19.30
2019-05-13T18:29:11.942Z,11.93
2019-05-13T18:31:43.725Z,12.23
2019-05-13T18:34:16.779Z,12.05
2019-05-13T18:36:51.402Z,11.75
2019-05-13T18:39:22.285Z,12.50
2019-05-13T18:41:53.970Z,11.33
2019-05-13T18:44:28.537Z,11.63
2019-05-13T18:47:01.888Z,13.03
2019-05-13T18:49:44.458Z,10.65
2019-05-13T18:52:22.257Z,11.63
2019-05-13T18:54:54.334Z,10.72
2019-05-13T18:57:31.726Z,11.10
2019-05-13T19:00:10.999Z,12.47
2019-05-13T19:02:41.578Z,12.00
2019-05-13T19:05:18.288Z,11.28
2019-05-13T19:07:53.868Z,12.28
2019-05-13T19:10:26.578Z,11.78
2019-05-13T19:13:01.665Z,12.30
2019-05-13T19:15:51.710Z,12.05
2019-05-13T19:18:31.839Z,11.38
2019-05-13T19:21:17.082Z,11.15
2019-05-13T19:23:51.195Z,11.90
2019-05-13T19:26:22.641Z,12.50
2019-05-13T19:28:54.519Z,13.32
2019-05-13T19:31:27.507Z,13.62
2019-05-13T19:34:03.505Z,13.03
2019-05-13T19:36:35.599Z,13.30
2019-05-13T19:39:21.650Z,12.80
2019-05-13T19:41:53.637Z,11.80
2019-05-13T19:44:31.372Z,12.05
2019-05-13T19:47:05.478Z,11.55
2019-05-13T19:49:46.656Z,12.25
2019-05-13T19:52:48.201Z,14.58
2019-05-13T19:55:20.031Z,12.70
2019-05-13T19:57:54.765Z,12.20
2019-05-13T20:00:32.719Z,14.58
2019-05-13T20:03:11.629Z,14.53
2019-05-13T20:05:51.444Z,14.73
2019-05-13T20:08:25.474Z,14.28
2019-05-13T20:10:57.299Z,15.32
2019-05-13T20:13:32.476Z,15.38
2019-05-13T20:16:27.573Z,16.50
2019-05-13T20:19:01.287Z,16.05
2019-05-13T20:24:18.209Z,16.02
2019-05-13T20:30:34.831Z,15.95
2019-05-13T20:33:11.778Z,15.63
2019-05-13T20:35:45.548Z,14.58
2019-05-13T20:38:45.347Z,16.32
2019-05-13T20:41:36.626Z,15.28
2019-05-13T20:44:10.043Z,13.10
2019-05-13T20:46:51.867Z,13.43
2019-05-13T20:49:31.320Z,13.30
2019-05-13T20:52:01.868Z,13.50
2019-05-13T20:54:34.529Z,14.13
2019-05-13T20:57:09.226Z,13.83
2019-05-13T20:59:43.462Z,13.78
2019-05-13T21:02:14.633Z,13.55
2019-05-13T21:04:46.537Z,13.83
2019-05-13T21:07:18.497Z,14.38
2019-05-13T21:09:51.267Z,14.40
2019-05-13T21:12:25.190Z,14.68
2019-05-13T21:14:56.653Z,14.38
2019-05-13T21:17:31.382Z,14.47
2019-05-13T21:20:18.538Z,15.25
2019-05-13T21:22:42.388Z,15.05
2019-05-13T21:25:15.390Z,15.10
2019-05-13T21:27:51.489Z,15.48
2019-05-13T21:30:34.949Z,15.00
2019-05-13T21:33:11.534Z,16.25
2019-05-13T21:35:51.176Z,16.60
2019-05-13T21:38:24.722Z,17.02
2019-05-13T21:40:57.681Z,18.57
2019-05-13T21:43:32.496Z,18.23
2019-05-13T21:46:05.543Z,18.60
2019-05-13T21:48:38.612Z,20.12
2019-05-13T21:51:13.231Z,19.55
2019-05-13T21:53:43.718Z,18.60
2019-05-13T21:56:17.229Z,19.77
2019-05-13T21:58:52.363Z,19.62
2019-05-13T22:01:27.964Z,19.55
2019-05-13T22:04:01.752Z,21.97
2019-05-13T22:06:32.727Z,21.45
2019-05-13T22:09:08.238Z,21.05
2019-05-13T22:14:15.087Z,22.80
2019-05-13T22:16:51.641Z,21.23
2019-05-13T22:19:23.440Z,21.70
2019-05-13T22:21:56.834Z,23.00
2019-05-13T22:24:31.231Z,20.57
2019-05-13T22:27:06.303Z,22.48
2019-05-13T22:29:37.851Z,21.95
2019-05-13T22:32:11.290Z,21.35
2019-05-13T22:34:44.305Z,21.80
2019-05-13T22:37:17.558Z,21.93
2019-05-13T22:39:49.730Z,21.90
2019-05-13T22:42:21.635Z,22.40
2019-05-13T22:44:55.066Z,22.75
2019-05-13T22:47:31.559Z,23.57
2019-05-13T22:50:07.767Z,22.07
2019-05-13T22:52:39.017Z,22.37
2019-05-13T22:55:11.527Z,23.00
2019-05-13T22:57:43.428Z,22.30
2019-05-13T23:00:22.272Z,22.70
2019-05-13T23:02:53.688Z,23.35
2019-05-13T23:05:25.311Z,22.30
2019-05-13T23:07:56.932Z,23.85
2019-05-13T23:10:31.878Z,24.02
2019-05-13T23:13:11.397Z,22.42
2019-05-13T23:15:42.745Z,23.75
2019-05-13T23:18:17.250Z,22.17
2019-05-13T23:20:51.613Z,23.85
2019-05-13T23:23:22.772Z,23.60
2019-05-13T23:25:57.348Z,23.95
2019-05-13T23:28:32.075Z,24.00
2019-05-13T23:31:06.038Z,24.32
2019-05-13T23:33:37.347Z,23.47
2019-05-13T23:36:09.057Z,23.12
2019-05-13T23:38:41.341Z,23.87
2019-05-13T23:41:13.983Z,23.67
2019-05-13T23:43:46.132Z,22.80
2019-05-13T23:46:22.351Z,24.37
2019-05-13T23:48:55.330Z,24.20
2019-05-13T23:51:29.407Z,24.25
2019-05-13T23:54:01.673Z,24.20
2019-05-13T23:56:33.138Z,24.23
2019-05-13T23:59:04.542Z,24.35
